Time;durP1;ratioP1;P1;durP2;ratioP2;P2;SDS_P1;SDS_P2;PMS_P1;PMS_P2;Temp;Humidity;BMP_temperature;BMP_pressure;BME280_temperature;BME280_humidity;BME280_pressure;Samples;Min_cycle;Max_cycle;Signal;HPM_P1;HPM_P2
2022/01/11 00:00:41;;;;;;;;;;;;;;;20.31;39.65;102866.63;4991914;28;19922;-84
2022/01/11 00:03:06;;;;;;;;;;;;;;;20.30;39.57;102864.94;4990959;28;19976;-86
2022/01/11 00:05:37;;;;;;;;;;;;;;;20.29;39.53;102846.84;4994301;28;20004;-85
2022/01/11 00:08:03;;;;;;;;;;;;;;;20.27;39.55;102838.03;4989557;28;19930;-85
2022/01/11 00:12:55;;;;;;;;;;;;;;;20.26;39.43;102836.38;4991940;28;19926;-86
2022/01/11 00:15:20;;;;;;;;;;;;;;;20.25;39.48;102833.88;4992468;28;20401;-85
2022/01/11 00:17:46;;;;;;;;;;;;;;;20.25;39.30;102828.38;4991440;28;19922;-85
2022/01/11 00:20:16;;;;;;;;;;;;;;;20.23;39.38;102831.38;4989036;28;19922;-84
2022/01/11 00:25:26;;;;;;;;;;;;;;;20.21;39.24;102824.50;4993209;28;19953;-85
2022/01/11 00:27:51;;;;;;;;;;;;;;;20.21;39.29;102843.69;4993418;28;19972;-85
2022/01/11 00:30:17;;;;;;;;;;;;;;;20.20;39.17;102844.78;4990841;28;19922;-84
2022/01/11 00:32:48;;;;;;;;;;;;;;;20.19;39.27;102843.97;4993394;28;20514;-85
2022/01/11 00:35:16;;;;;;;;;;;;;;;20.18;39.37;102846.97;4995916;28;19932;-85
2022/01/11 00:37:42;;;;;;;;;;;;;;;20.16;39.20;102849.97;4996507;28;19926;-85
2022/01/11 00:40:08;;;;;;;;;;;;;;;20.16;39.12;102847.25;4995750;28;20413;-85
2022/01/11 00:42:34;;;;;;;;;;;;;;;20.15;39.10;102847.47;4992016;28;19972;-85
2022/01/11 00:44:59;;;;;;;;;;;;;;;20.15;39.17;102844.75;4992660;28;19957;-86
2022/01/11 00:47:24;;;;;;;;;;;;;;;20.13;39.22;102850.47;4994873;28;19954;-87
2022/01/11 00:49:52;;;;;;;;;;;;;;;20.12;39.17;102851.56;4996604;28;19972;-85
2022/01/11 00:52:17;;;;;;;;;;;;;;;20.12;39.18;102853.50;4995568;28;19926;-85
2022/01/11 00:54:42;;;;;;;;;;;;;;;20.10;39.25;102857.28;4994043;28;19995;-85
2022/01/11 00:57:07;;;;;;;;;;;;;;;20.10;39.16;102856.47;4994306;28;20069;-85
2022/01/11 00:59:33;;;;;;;;;;;;;;;20.08;39.15;102845.78;4996087;28;19933;-85
2022/01/11 01:01:58;;;;;;;;;;;;;;;20.07;39.12;102838.63;4989446;28;20431;-86
2022/01/11 01:04:23;;;;;;;;;;;;;;;20.06;39.20;102845.19;4994071;28;19917;-83
2022/01/11 01:06:49;;;;;;;;;;;;;;;20.06;39.01;102838.88;4993634;28;19932;-82
2022/01/11 01:09:14;;;;;;;;;;;;;;;20.06;39.43;102849.84;4994543;28;19996;-85
2022/01/11 01:11:43;;;;;;;;;;;;;;;20.04;39.01;102850.09;4994822;28;19922;-83
2022/01/11 01:14:08;;;;;;;;;;;;;;;20.03;39.02;102847.59;4995460;28;19918;-82
2022/01/11 01:16:33;;;;;;;;;;;;;;;20.03;38.95;102848.47;4996807;28;19924;-82
2022/01/11 01:18:59;;;;;;;;;;;;;;;20.02;39.04;102846.78;4994040;28;20349;-82
2022/01/11 01:21:24;;;;;;;;;;;;;;;20.01;39.08;102844.31;4994965;28;19922;-82
2022/01/11 01:23:49;;;;;;;;;;;;;;;19.99;38.96;102850.03;4995590;28;19926;-82
2022/01/11 01:26:17;;;;;;;;;;;;;;;19.99;39.13;102833.59;4992584;28;19926;-81
2022/01/11 01:28:43;;;;;;;;;;;;;;;19.98;39.05;102845.66;4995283;28;19925;-82
2022/01/11 01:31:08;;;;;;;;;;;;;;;19.97;39.15;102843.16;4994305;28;19921;-81
2022/01/11 01:33:33;;;;;;;;;;;;;;;19.96;39.00;102846.97;4995392;28;20366;-82
2022/01/11 01:36:02;;;;;;;;;;;;;;;19.95;38.99;102854.38;4993526;28;20017;-81
2022/01/11 01:38:29;;;;;;;;;;;;;;;19.94;39.00;102852.72;4993676;28;19922;-83
2022/01/11 01:41:00;;;;;;;;;;;;;;;19.94;39.04;102858.22;4995174;28;20366;-82
2022/01/11 01:43:25;;;;;;;;;;;;;;;19.92;39.05;102863.13;4993398;28;19925;-82
2022/01/11 01:45:52;;;;;;;;;;;;;;;19.92;38.95;102873.25;4995198;28;19918;-82
2022/01/11 01:48:19;;;;;;;;;;;;;;;19.89;38.82;102875.41;4993213;28;20024;-83
2022/01/11 01:50:44;;;;;;;;;;;;;;;19.89;38.92;102874.59;4991039;28;19924;-82
2022/01/11 01:53:12;;;;;;;;;;;;;;;19.88;38.86;102873.78;4989410;28;19925;-79
2022/01/11 01:55:42;;;;;;;;;;;;;;;19.87;38.99;102883.06;4995224;28;19917;-82
2022/01/11 01:58:07;;;;;;;;;;;;;;;19.86;38.90;102878.69;4993252;28;19921;-81
2022/01/11 02:00:40;;;;;;;;;;;;;;;19.87;39.00;102884.97;4994367;28;19945;-86
2022/01/11 02:03:08;;;;;;;;;;;;;;;19.85;39.05;102884.41;4993275;28;20014;-85
2022/01/11 02:05:33;;;;;;;;;;;;;;;19.84;38.97;102890.97;4990231;28;20008;-82
2022/01/11 02:07:58;;;;;;;;;;;;;;;19.83;38.92;102890.16;4993973;28;19977;-82
2022/01/11 02:10:24;;;;;;;;;;;;;;;19.82;39.00;102893.13;4994027;28;19921;-82
2022/01/11 02:12:50;;;;;;;;;;;;;;;19.81;39.01;102883.28;4993155;28;19925;-82
2022/01/11 02:15:15;;;;;;;;;;;;;;;19.80;38.92;102889.81;4994309;28;19929;-80
2022/01/11 02:17:40;;;;;;;;;;;;;;;19.79;39.14;102893.66;5009247;28;19929;-80
2022/01/11 02:20:10;;;;;;;;;;;;;;;19.79;38.94;102890.91;4993968;28;19926;-79
2022/01/11 02:22:36;;;;;;;;;;;;;;;19.77;38.92;102887.59;4994008;28;19928;-82
2022/01/11 02:25:01;;;;;;;;;;;;;;;19.76;38.99;102895.00;4995169;28;19922;-81
2022/01/11 02:27:26;;;;;;;;;;;;;;;19.74;38.99;102897.16;4992217;28;19929;-79
2022/01/11 02:29:52;;;;;;;;;;;;;;;19.74;38.88;102904.56;4993992;28;19925;-82
2022/01/11 02:32:18;;;;;;;;;;;;;;;19.73;38.77;102905.63;4992611;28;20398;-81
2022/01/11 02:34:43;;;;;;;;;;;;;;;19.73;38.75;102900.13;4995057;28;20009;-81
2022/01/11 02:37:08;;;;;;;;;;;;;;;19.70;38.88;102901.47;4993996;28;19926;-80
2022/01/11 02:39:34;;;;;;;;;;;;;;;19.70;38.88;102912.44;4993614;28;20001;-81
2022/01/11 02:42:01;;;;;;;;;;;;;;;19.70;38.82;102914.34;4994555;28;20286;-81
2022/01/11 02:44:27;;;;;;;;;;;;;;;19.68;38.98;102920.09;4991386;28;19922;-82
2022/01/11 02:46:52;;;;;;;;;;;;;;;19.67;39.04;102926.66;4994725;28;19928;-82
2022/01/11 02:49:17;;;;;;;;;;;;;;;19.67;38.84;102932.13;4991519;28;20346;-79
2022/01/11 02:51:42;;;;;;;;;;;;;;;19.65;38.75;102926.88;4993502;28;20275;-81
2022/01/11 02:54:08;;;;;;;;;;;;;;;19.65;38.87;102920.53;4993005;28;20374;-81
2022/01/11 02:56:33;;;;;;;;;;;;;;;19.64;39.04;102924.38;4991086;28;19926;-81
2022/01/11 02:58:58;;;;;;;;;;;;;;;19.63;38.98;102918.06;4994006;28;19945;-81
2022/01/11 03:01:24;;;;;;;;;;;;;;;19.62;38.86;102930.09;4993102;28;19968;-82
2022/01/11 03:03:51;;;;;;;;;;;;;;;19.62;39.05;102932.84;5009013;28;19972;-82
2022/01/11 03:06:16;;;;;;;;;;;;;;;19.61;38.89;102924.91;4993665;28;19980;-82
2022/01/11 03:08:43;;;;;;;;;;;;;;;19.60;39.00;102928.69;4992158;28;19922;-81
2022/01/11 03:11:10;;;;;;;;;;;;;;;19.59;38.96;102919.66;4993636;28;20433;-82
2022/01/11 03:13:35;;;;;;;;;;;;;;;19.58;38.88;102907.03;4992692;28;19975;-82
2022/01/11 03:16:01;;;;;;;;;;;;;;;19.57;39.03;102919.06;4990247;28;19918;-81
2022/01/11 03:18:26;;;;;;;;;;;;;;;19.57;38.86;102926.47;4990875;28;19922;-83
2022/01/11 03:20:53;;;;;;;;;;;;;;;19.56;38.96;102916.59;4993161;28;19938;-82
2022/01/11 03:23:18;;;;;;;;;;;;;;;19.55;38.80;102923.97;4993285;28;19922;-81
2022/01/11 03:25:44;;;;;;;;;;;;;;;19.54;38.80;102918.75;4991079;28;20382;-82
2022/01/11 03:28:09;;;;;;;;;;;;;;;19.54;38.91;102914.09;4991553;28;19929;-82
2022/01/11 03:30:35;;;;;;;;;;;;;;;19.53;38.84;102914.31;4992539;28;19922;-82
2022/01/11 03:33:01;;;;;;;;;;;;;;;19.51;38.95;102911.84;4993393;28;19928;-82
2022/01/11 03:35:29;;;;;;;;;;;;;;;19.51;38.83;102919.25;4992552;28;20021;-85
2022/01/11 03:37:54;;;;;;;;;;;;;;;19.50;38.88;102915.66;4991127;28;19926;-82
2022/01/11 03:40:21;;;;;;;;;;;;;;;19.50;38.92;102920.31;4993419;28;19922;-82
2022/01/11 03:42:47;;;;;;;;;;;;;;;19.50;38.95;102920.31;5005513;28;20293;-82
2022/01/11 03:45:13;;;;;;;;;;;;;;;19.48;38.82;102922.47;4993298;28;19918;-82
2022/01/11 03:47:39;;;;;;;;;;;;;;;19.48;38.94;102919.72;4992400;28;19936;-82
2022/01/11 03:50:05;;;;;;;;;;;;;;;19.46;39.04;102918.09;4990382;28;20016;-82
2022/01/11 03:52:30;;;;;;;;;;;;;;;19.46;38.93;102920.81;4991282;28;19918;-81
2022/01/11 03:57:22;;;;;;;;;;;;;;;19.45;38.84;102919.16;4993134;28;19921;-81
2022/01/11 03:59:47;;;;;;;;;;;;;;;19.44;38.73;102919.41;4991990;28;19922;-82
2022/01/11 04:02:13;;;;;;;;;;;;;;;19.43;38.84;102924.06;4991766;28;19929;-82
2022/01/11 04:04:38;;;;;;;;;;;;;;;19.42;38.97;102916.91;4992495;28;19989;-82
2022/01/11 04:07:04;;;;;;;;;;;;;;;19.40;38.98;102916.34;4991823;28;19968;-81
2022/01/11 04:09:29;;;;;;;;;;;;;;;19.40;38.85;102930.06;5006745;28;19960;-82
2022/01/11 04:11:55;;;;;;;;;;;;;;;19.41;38.92;102928.13;4991675;28;19922;-81
2022/01/11 04:14:21;;;;;;;;;;;;;;;19.39;38.71;102933.84;4993395;28;19964;-82
2022/01/11 04:16:47;;;;;;;;;;;;;;;19.39;38.87;102933.84;4993046;28;19929;-82
2022/01/11 04:19:12;;;;;;;;;;;;;;;19.36;38.74;102923.41;4991281;28;19949;-82
2022/01/11 04:21:37;;;;;;;;;;;;;;;19.37;38.87;102930.53;4990089;28;19929;-84
2022/01/11 04:24:03;;;;;;;;;;;;;;;19.36;38.88;102933.53;4992323;28;20266;-81
2022/01/11 04:26:28;;;;;;;;;;;;;;;19.35;38.68;102935.44;4992165;28;19921;-80
2022/01/11 04:28:53;;;;;;;;;;;;;;;19.34;38.77;102933.78;4992482;28;20024;-81
2022/01/11 04:31:19;;;;;;;;;;;;;;;19.34;38.95;102939.25;4994301;28;19926;-81
2022/01/11 04:33:45;;;;;;;;;;;;;;;19.33;38.77;102931.31;4990839;28;19930;-82
2022/01/11 04:36:11;;;;;;;;;;;;;;;19.32;38.83;102921.41;4992557;28;19994;-83
2022/01/11 04:38:37;;;;;;;;;;;;;;;19.31;38.98;102923.31;5003546;28;19919;-81
2022/01/11 04:41:02;;;;;;;;;;;;;;;19.31;39.09;102928.78;4985910;28;20016;-82
2022/01/11 04:43:28;;;;;;;;;;;;;;;19.31;38.89;102930.72;4992301;28;19980;-81
2022/01/11 04:45:53;;;;;;;;;;;;;;;19.29;38.75;102930.94;4990177;28;20377;-80
2022/01/11 04:48:18;;;;;;;;;;;;;;;19.29;39.09;102932.88;4992567;28;19929;-81
2022/01/11 04:50:45;;;;;;;;;;;;;;;19.28;38.99;102925.69;4992145;28;19964;-81
2022/01/11 04:53:10;;;;;;;;;;;;;;;19.28;38.79;102925.69;4991900;28;19933;-80
2022/01/11 04:55:35;;;;;;;;;;;;;;;19.26;38.97;102925.16;4982274;28;19930;-81
2022/01/11 04:58:01;;;;;;;;;;;;;;;19.26;38.98;102925.16;4990416;28;19926;-81
2022/01/11 05:00:27;;;;;;;;;;;;;;;19.24;39.05;102914.41;4992172;28;19929;-81
2022/01/11 05:02:56;;;;;;;;;;;;;;;19.24;39.01;102914.41;4991363;28;20054;-81
2022/01/11 05:05:22;;;;;;;;;;;;;;;19.23;38.89;102913.59;4990857;28;20392;-81
2022/01/11 05:07:47;;;;;;;;;;;;;;;19.22;38.83;102911.09;4989106;28;19965;-83
2022/01/11 05:10:13;;;;;;;;;;;;;;;19.21;38.74;102915.75;4991866;28;20413;-81
2022/01/11 05:12:38;;;;;;;;;;;;;;;19.19;38.94;102917.91;4991050;28;20013;-81
2022/01/11 05:15:08;;;;;;;;;;;;;;;19.20;38.91;102915.97;4992188;28;19918;-81
2022/01/11 05:17:33;;;;;;;;;;;;;;;19.19;38.87;102922.56;4991633;28;19925;-78
2022/01/11 05:19:59;;;;;;;;;;;;;;;19.18;38.89;102916.25;4995502;28;20397;-80
2022/01/11 05:22:24;;;;;;;;;;;;;;;19.17;39.05;102911.84;4995830;28;19930;-80
2022/01/11 05:24:50;;;;;;;;;;;;;;;19.17;38.79;102920.06;4994986;28;20294;-82
2022/01/11 05:27:15;;;;;;;;;;;;;;;19.17;38.82;102930.19;5007615;28;19965;-81
2022/01/11 05:29:40;;;;;;;;;;;;;;;19.15;38.92;102930.44;4994500;28;19926;-81
2022/01/11 05:32:05;;;;;;;;;;;;;;;19.15;38.93;102924.13;4992068;28;19934;-80
2022/01/11 05:34:31;;;;;;;;;;;;;;;19.14;38.79;102931.50;4994035;28;19926;-80
2022/01/11 05:36:56;;;;;;;;;;;;;;;19.14;38.80;102927.94;4994761;28;20150;-82
2022/01/11 05:39:21;;;;;;;;;;;;;;;19.14;39.05;102927.94;4993730;28;20302;-81
2022/01/11 05:41:47;;;;;;;;;;;;;;;19.13;38.96;102931.78;4995059;28;19918;-81
2022/01/11 05:44:12;;;;;;;;;;;;;;;19.11;38.81;102937.50;4995409;28;20000;-81
2022/01/11 05:46:37;;;;;;;;;;;;;;;19.11;38.68;102947.63;4994914;28;20029;-78
2022/01/11 05:49:02;;;;;;;;;;;;;;;19.09;38.82;102950.59;4994489;28;19921;-81
2022/01/11 05:51:28;;;;;;;;;;;;;;;19.08;38.89;102951.69;4994014;28;19929;-83
2022/01/11 05:53:54;;;;;;;;;;;;;;;19.07;38.73;102958.22;4994711;28;20338;-80
2022/01/11 05:56:19;;;;;;;;;;;;;;;19.08;38.92;102967.28;4995053;28;19925;-81
2022/01/11 05:58:46;;;;;;;;;;;;;;;19.06;38.75;102967.53;4995020;28;19929;-81
2022/01/11 06:01:11;;;;;;;;;;;;;;;19.06;38.93;102966.72;4994784;28;19926;-81
2022/01/11 06:03:37;;;;;;;;;;;;;;;19.05;38.88;102974.09;4980760;28;20397;-82
2022/01/11 06:06:02;;;;;;;;;;;;;;;19.03;38.79;102974.34;4994483;28;19926;-83
2022/01/11 06:08:27;;;;;;;;;;;;;;;19.03;38.82;102984.47;4994523;28;19988;-82
2022/01/11 06:10:53;;;;;;;;;;;;;;;19.02;38.88;102980.03;4992322;28;20354;-83
2022/01/11 06:13:19;;;;;;;;;;;;;;;19.01;39.05;102981.97;4995738;28;20356;-83
2022/01/11 06:15:44;;;;;;;;;;;;;;;18.99;38.96;102995.06;4993500;28;19926;-81
2022/01/11 06:18:09;;;;;;;;;;;;;;;18.99;38.92;102984.09;4993350;28;19932;-77
2022/01/11 06:20:35;;;;;;;;;;;;;;;18.98;38.87;102985.19;4999440;28;19926;-80
2022/01/11 06:23:00;;;;;;;;;;;;;;;18.98;39.02;102979.72;4993851;28;20341;-80
2022/01/11 06:25:25;;;;;;;;;;;;;;;18.97;38.71;102980.78;4992516;28;20036;-82
2022/01/11 06:27:50;;;;;;;;;;;;;;;18.97;38.91;102985.44;4993590;28;19929;-82
2022/01/11 06:30:17;;;;;;;;;;;;;;;18.97;39.11;102983.50;4993632;28;19937;-82
2022/01/11 06:32:45;;;;;;;;;;;;;;;18.96;38.95;102990.06;4993540;28;19922;-79
2022/01/11 06:35:11;;;;;;;;;;;;;;;18.96;39.15;102984.59;4993238;28;19922;-76
2022/01/11 06:37:36;;;;;;;;;;;;;;;18.98;39.13;102984.38;4990247;28;20012;-85
2022/01/11 06:40:05;;;;;;;;;;;;;;;18.98;39.31;102987.94;5008914;28;20596;-84
2022/01/11 06:42:31;;;;;;;;;;;;;;;18.99;39.36;102994.22;4995800;28;19932;-83
2022/01/11 06:44:57;;;;;;;;;;;;;;;18.99;39.37;103003.28;4990777;28;19991;-83
2022/01/11 06:47:22;;;;;;;;;;;;;;;18.98;39.65;103004.38;4993354;28;20398;-87
2022/01/11 06:49:47;;;;;;;;;;;;;;;18.98;39.28;103001.63;4994128;28;19932;-85
2022/01/11 06:52:13;;;;;;;;;;;;;;;18.98;39.38;103000.81;4994004;28;19925;-84
2022/01/11 06:54:38;;;;;;;;;;;;;;;18.98;39.44;103009.03;5002516;28;19922;-86
2022/01/11 06:57:03;;;;;;;;;;;;;;;18.97;39.51;102999.13;4991432;28;19964;-84
2022/01/11 06:59:29;;;;;;;;;;;;;;;18.97;39.44;102990.91;4990613;28;19921;-86
2022/01/11 07:01:54;;;;;;;;;;;;;;;18.96;39.51;102989.25;4996041;28;20024;-86
2022/01/11 07:04:19;;;;;;;;;;;;;;;18.96;39.51;102997.47;4993545;28;19918;-85
2022/01/11 07:06:44;;;;;;;;;;;;;;;18.95;39.39;102995.78;4992855;28;20282;-83
2022/01/11 07:09:10;;;;;;;;;;;;;;;18.94;39.55;103005.91;4998135;28;19925;-85
2022/01/11 07:11:35;;;;;;;;;;;;;;;18.94;39.33;103005.91;4983402;28;19933;-86
2022/01/11 07:14:03;;;;;;;;;;;;;;;18.94;39.34;103018.78;4995111;28;19922;-86
2022/01/11 07:16:28;;;;;;;;;;;;;;;18.93;39.40;103014.41;4992462;28;20003;-83
2022/01/11 07:18:54;;;;;;;;;;;;;;;18.93;39.37;103017.13;4998394;28;19977;-85
2022/01/11 07:21:19;;;;;;;;;;;;;;;18.92;39.53;103016.28;4995888;28;19973;-86
2022/01/11 07:23:44;;;;;;;;;;;;;;;18.92;39.35;103019.00;5004681;28;19932;-88
2022/01/11 07:26:09;;;;;;;;;;;;;;;18.91;39.60;103024.75;4998233;28;19928;-88
2022/01/11 07:28:35;;;;;;;;;;;;;;;18.91;39.42;103030.22;4989741;28;19930;-87
2022/01/11 07:31:01;;;;;;;;;;;;;;;18.90;39.52;103034.03;4994334;28;20430;-87
2022/01/11 07:33:26;;;;;;;;;;;;;;;18.89;39.53;103043.31;5008737;28;19965;-85
2022/01/11 07:35:51;;;;;;;;;;;;;;;18.88;39.69;103037.03;4987376;28;19928;-81
2022/01/11 07:38:16;;;;;;;;;;;;;;;18.90;39.64;103034.88;4975039;28;19933;-82
2022/01/11 07:40:42;;;;;;;;;;;;;;;18.90;39.59;103039.50;4985878;28;19937;-82
2022/01/11 07:43:07;;;;;;;;;;;;;;;18.92;39.71;103048.31;4986694;28;20386;-82
2022/01/11 07:45:32;;;;;;;;;;;;;;;18.93;39.70;103048.09;4984487;28;20020;-81
2022/01/11 07:47:58;;;;;;;;;;;;;;;18.95;39.67;103045.94;4987595;28;19922;-83
2022/01/11 07:50:23;;;;;;;;;;;;;;;18.97;39.71;103051.16;4988880;28;19933;-82
2022/01/11 07:52:48;;;;;;;;;;;;;;;18.98;39.73;103050.09;4987370;28;20424;-84
2022/01/11 07:55:14;;;;;;;;;;;;;;;19.00;39.89;103062.47;4983832;28;19926;-85
2022/01/11 07:57:39;;;;;;;;;;;;;;;19.01;39.77;103057.81;4986868;28;19926;-82
2022/01/11 08:00:05;;;;;;;;;;;;;;;19.01;39.93;103053.16;4979739;28;19918;-82
2022/01/11 08:02:30;;;;;;;;;;;;;;;19.03;39.78;103056.50;4999994;28;19921;-84
2022/01/11 08:04:59;;;;;;;;;;;;;;;19.05;39.83;103061.75;4971286;28;19992;-81
2022/01/11 08:07:24;;;;;;;;;;;;;;;19.05;39.78;103058.16;4974153;28;19926;-80
2022/01/11 08:09:49;;;;;;;;;;;;;;;19.06;39.83;103071.63;4982756;28;19929;-81
2022/01/11 08:12:15;;;;;;;;;;;;;;;19.06;39.86;103065.31;4988633;28;20305;-80
2022/01/11 08:14:40;;;;;;;;;;;;;;;19.06;39.77;103065.31;4981631;28;19929;-79
2022/01/11 08:17:05;;;;;;;;;;;;;;;19.07;39.76;103070.53;4980789;28;19932;-79
2022/01/11 08:19:31;;;;;;;;;;;;;;;19.07;40.06;103075.19;4980577;28;20287;-79
2022/01/11 08:21:58;;;;;;;;;;;;;;;19.09;39.91;103070.31;5002819;28;19972;-79
2022/01/11 08:24:23;;;;;;;;;;;;;;;19.09;40.12;103078.53;4989982;28;19918;-79
2022/01/11 08:26:49;;;;;;;;;;;;;;;19.11;39.94;103073.63;4977129;28;19934;-80
2022/01/11 08:29:15;;;;;;;;;;;;;;;19.13;39.96;103077.78;4972969;28;20347;-80
2022/01/11 08:31:40;;;;;;;;;;;;;;;19.15;39.92;103081.13;4990574;28;19969;-79
2022/01/11 08:34:11;;;;;;;;;;;;;;;19.17;39.97;103078.13;4983745;28;20017;-81
2022/01/11 08:36:37;;;;;;;;;;;;;;;19.20;40.04;103080.38;4967365;28;20887;-81
2022/01/11 08:39:02;;;;;;;;;;;;;;;19.22;40.09;103078.22;4977397;28;19925;-81
2022/01/11 08:41:27;;;;;;;;;;;;;;;19.26;39.99;103075.84;4987563;28;19929;-79
2022/01/11 08:43:52;;;;;;;;;;;;;;;19.28;40.14;103070.94;4988124;28;20023;-79
2022/01/11 08:46:18;;;;;;;;;;;;;;;19.29;40.15;103073.44;4973309;28;19930;-78
2022/01/11 08:48:43;;;;;;;;;;;;;;;19.31;40.16;103065.81;4978351;28;19930;-78
2022/01/11 08:51:08;;;;;;;;;;;;;;;19.33;40.08;103066.41;4985303;28;20437;-79
2022/01/11 08:53:33;;;;;;;;;;;;;;;19.36;40.25;103068.66;4983412;28;19926;-78
2022/01/11 08:55:59;;;;;;;;;;;;;;;19.39;40.24;103075.53;4989711;28;19940;-78
2022/01/11 08:58:24;;;;;;;;;;;;;;;19.41;40.24;103076.13;4990876;28;19925;-80
2022/01/11 09:00:49;;;;;;;;;;;;;;;19.43;40.17;103076.72;4989607;28;20287;-78
2022/01/11 09:03:15;;;;;;;;;;;;;;;19.45;40.26;103078.16;4997409;28;20012;-78
2022/01/11 09:05:41;;;;;;;;;;;;;;;19.48;40.41;103084.19;4943812;28;19922;-79
2022/01/11 09:08:06;;;;;;;;;;;;;;;19.49;40.32;103088.59;4988151;28;19945;-78
2022/01/11 09:10:31;;;;;;;;;;;;;;;19.50;40.13;103093.00;4957239;28;20477;-78
2022/01/11 09:12:57;;;;;;;;;;;;;;;19.50;40.24;103085.59;4969216;28;19934;-77
2022/01/11 09:15:22;;;;;;;;;;;;;;;19.52;40.32;103088.94;4981192;28;20009;-77
2022/01/11 09:17:48;;;;;;;;;;;;;;;19.54;40.01;103088.69;4976541;28;19984;-77
2022/01/11 09:20:13;;;;;;;;;;;;;;;19.54;40.01;103091.44;4981044;28;19918;-77
2022/01/11 09:22:40;;;;;;;;;;;;;;;19.54;40.12;103089.53;4980478;28;19953;-78
2022/01/11 09:25:06;;;;;;;;;;;;;;;19.55;39.97;103090.34;4981688;28;19941;-81
2022/01/11 09:27:31;;;;;;;;;;;;;;;19.57;39.88;103093.69;4991677;28;20282;-79
2022/01/11 09:29:56;;;;;;;;;;;;;;;19.58;40.03;103100.81;4991011;28;19926;-78
2022/01/11 09:32:22;;;;;;;;;;;;;;;19.58;39.82;103107.16;4975030;28;19928;-80
2022/01/11 09:34:47;;;;;;;;;;;;;;;19.60;39.87;103104.97;4978853;28;19933;-78
2022/01/11 09:37:12;;;;;;;;;;;;;;;19.62;39.84;103102.00;4980444;28;19957;-77
2022/01/11 09:39:39;;;;;;;;;;;;;;;19.63;39.79;103100.91;4997794;28;19922;-77
2022/01/11 09:42:05;;;;;;;;;;;;;;;19.64;39.80;103102.59;4987792;28;19918;-77
2022/01/11 09:44:32;;;;;;;;;;;;;;;19.67;40.04;103105.69;4979375;28;20379;-77
2022/01/11 09:46:58;;;;;;;;;;;;;;;19.67;39.70;103104.88;4981369;28;19929;-77
2022/01/11 09:49:23;;;;;;;;;;;;;;;19.68;39.71;103106.56;4974567;28;19918;-76
2022/01/11 09:51:48;;;;;;;;;;;;;;;19.70;39.88;103103.53;4989810;28;19922;-78
2022/01/11 09:54:14;;;;;;;;;;;;;;;19.70;39.66;103101.63;4985070;28;19978;-77
2022/01/11 09:56:39;;;;;;;;;;;;;;;19.72;39.68;103098.66;4983190;28;19974;-76
2022/01/11 09:59:05;;;;;;;;;;;;;;;19.73;39.62;103108.53;4976399;28;19926;-77
2022/01/11 10:01:30;;;;;;;;;;;;;;;19.73;39.66;103109.38;4997678;28;19918;-79
2022/01/11 10:03:58;;;;;;;;;;;;;;;19.75;39.62;103117.34;4989553;28;19918;-79
2022/01/11 10:06:25;;;;;;;;;;;;;;;19.75;39.63;103123.66;4954268;28;19926;-82
2022/01/11 10:08:50;;;;;;;;;;;;;;;19.76;39.27;103124.50;4973756;28;20298;-79
2022/01/11 10:11:32;;;;;;;;;;;;;;;19.77;39.35;103116.03;4981440;28;19930;-79
2022/01/11 10:13:58;;;;;;;;;;;;;;;19.77;39.22;103113.28;4978535;28;19925;-80
2022/01/11 10:16:25;;;;;;;;;;;;;;;19.78;39.25;103114.97;4976964;28;20725;-78
2022/01/11 10:18:52;;;;;;;;;;;;;;;19.79;39.39;103119.34;4977760;28;20433;-79
2022/01/11 10:21:50;;;;;;;;;;;;;;;19.79;39.25;103119.34;4988708;28;20027;-82
2022/01/11 10:24:21;;;;;;;;;;;;;;;19.81;39.23;103119.13;4990994;28;19925;-80
2022/01/11 10:26:46;;;;;;;;;;;;;;;19.81;39.04;103122.69;4978984;28;19983;-80
2022/01/11 10:29:24;;;;;;;;;;;;;;;19.82;39.09;103126.25;4975944;28;20012;-80
2022/01/11 10:31:50;;;;;;;;;;;;;;;19.83;39.06;103125.16;4984394;28;20056;-81
2022/01/11 10:34:15;;;;;;;;;;;;;;;19.83;39.12;103126.03;4975495;28;20005;-77
2022/01/11 10:36:44;;;;;;;;;;;;;;;19.84;39.18;103121.34;4987809;28;19929;-77
2022/01/11 10:39:28;;;;;;;;;;;;;;;19.84;39.11;103124.94;4990293;28;20493;-77
2022/01/11 10:41:53;;;;;;;;;;;;;;;19.86;39.04;103125.53;4976960;28;20440;-76
2022/01/11 10:44:37;;;;;;;;;;;;;;;19.86;38.91;103122.78;4986269;28;19918;-80
2022/01/11 10:47:03;;;;;;;;;;;;;;;19.87;38.86;103120.84;4984611;28;19958;-80
2022/01/11 10:49:29;;;;;;;;;;;;;;;19.87;38.88;103129.91;4988688;28;20381;-79
2022/01/11 10:52:13;;;;;;;;;;;;;;;19.88;38.77;103130.72;4989509;28;20401;-79
2022/01/11 10:54:40;;;;;;;;;;;;;;;19.88;38.68;103131.59;4977316;28;19925;-80
2022/01/11 10:57:19;;;;;;;;;;;;;;;19.89;38.72;103133.25;4977299;28;19918;-80
2022/01/11 11:00:03;;;;;;;;;;;;;;;19.90;38.73;103139.56;4986423;28;19992;-79
2022/01/11 11:02:28;;;;;;;;;;;;;;;19.91;38.71;103137.63;4977197;28;20009;-79
2022/01/11 11:04:55;;;;;;;;;;;;;;;19.91;38.85;103135.75;4984345;28;20009;-78
2022/01/11 11:07:23;;;;;;;;;;;;;;;19.90;38.67;103131.31;4928835;28;19965;-81
2022/01/11 11:09:52;;;;;;;;;;;;;;;19.91;38.50;103138.50;4974973;28;19926;-80
2022/01/11 11:12:19;;;;;;;;;;;;;;;19.91;38.55;103132.16;4976700;28;19949;-78
2022/01/11 11:14:48;;;;;;;;;;;;;;;19.92;38.66;103134.66;4979130;28;19969;-77
2022/01/11 11:17:33;;;;;;;;;;;;;;;19.92;38.64;103140.16;4971015;28;19973;-79
2022/01/11 11:20:06;;;;;;;;;;;;;;;19.93;38.67;103135.47;4988970;28;19929;-77
2022/01/11 11:22:32;;;;;;;;;;;;;;;19.94;38.65;103132.50;4973817;28;19925;-78
2022/01/11 11:24:57;;;;;;;;;;;;;;;19.93;38.66;103130.81;4979310;28;20247;-79
2022/01/11 11:27:24;;;;;;;;;;;;;;;19.95;38.50;103133.34;4987156;28;20437;-80
2022/01/11 11:29:50;;;;;;;;;;;;;;;19.95;38.48;103122.34;4989108;28;19926;-77
2022/01/11 11:32:17;;;;;;;;;;;;;;;19.96;38.43;103121.25;4980436;28;20274;-79
2022/01/11 11:34:44;;;;;;;;;;;;;;;19.96;38.64;103122.13;4976766;28;20445;-81
2022/01/11 11:37:11;;;;;;;;;;;;;;;19.96;38.56;103122.13;4983667;28;19941;-81
2022/01/11 11:39:37;;;;;;;;;;;;;;;19.97;38.65;103121.03;4985295;28;19918;-80
2022/01/11 11:42:04;;;;;;;;;;;;;;;19.98;38.51;103117.22;4989136;28;19922;-82
2022/01/11 11:44:34;;;;;;;;;;;;;;;19.98;38.69;103116.38;4992651;28;20168;-82
2022/01/11 11:47:01;;;;;;;;;;;;;;;19.99;38.58;103118.88;4981578;28;19971;-80
2022/01/11 11:49:46;;;;;;;;;;;;;;;20.00;38.59;103120.53;4986229;28;19924;-81
2022/01/11 11:52:32;;;;;;;;;;;;;;;20.01;38.57;103111.22;4983451;28;19921;-82
2022/01/11 11:55:03;;;;;;;;;;;;;;;20.02;38.66;103109.31;4980849;28;20360;-81
2022/01/11 11:57:31;;;;;;;;;;;;;;;20.03;38.43;103119.19;4990432;28;20214;-82
2022/01/11 12:00:01;;;;;;;;;;;;;;;20.04;38.46;103118.13;4981304;28;19929;-81
2022/01/11 12:02:32;;;;;;;;;;;;;;;20.04;38.59;103116.22;4981986;28;19926;-82
2022/01/11 12:04:58;;;;;;;;;;;;;;;20.05;38.60;103115.13;4989612;28;20840;-84
2022/01/11 12:07:32;;;;;;;;;;;;;;;20.05;38.34;103115.13;4936882;28;19930;-82
2022/01/11 12:09:58;;;;;;;;;;;;;;;20.07;38.53;103117.63;4966489;28;19926;-80
2022/01/11 12:12:42;;;;;;;;;;;;;;;20.07;38.42;103118.47;4988798;28;19932;-79
2022/01/11 12:15:22;;;;;;;;;;;;;;;20.08;38.39;103105.56;4977790;28;19932;-79
2022/01/11 12:17:48;;;;;;;;;;;;;;;20.09;38.57;103108.06;4972967;28;19929;-80
2022/01/11 12:20:33;;;;;;;;;;;;;;;20.09;38.50;103108.06;4986188;28;19921;-87
2022/01/11 12:22:58;;;;;;;;;;;;;;;20.11;38.50;103107.84;4985207;28;19961;-87
2022/01/11 12:25:29;;;;;;;;;;;;;;;20.10;38.50;103109.72;5000216;28;19976;-90
2022/01/11 12:27:58;;;;;;;;;;;;;;;20.11;38.36;103110.56;4982827;28;19962;-89
2022/01/11 12:30:23;;;;;;;;;;;;;;;20.13;38.39;103113.06;4990504;28;20401;-90
2022/01/11 12:33:08;;;;;;;;;;;;;;;20.12;38.43;103114.97;4980248;28;19930;-91
2022/01/11 12:35:33;;;;;;;;;;;;;;;20.12;38.30;103114.16;4983854;28;19922;-94
2022/01/11 12:38:06;;;;;;;;;;;;;;;20.14;38.28;103117.47;4980815;28;19984;-88
2022/01/11 12:40:36;;;;;;;;;;;;;;;20.13;38.46;103113.06;4982788;28;19925;-87